»·PEaware :: N223AG KBUR-KSJC

N223AG :: KBUR-KSJC

FLIGHT INFORMATION

Flight Status: Arrived
Operator: Privately registered:
United States
More flights under this callsign
Pilot: Milton Figures (13999)
Aircraft: CESSNA 510 CITATION MUSTANG
(C510)
More flights by this aircraft type
Origin: KBUR Bob Hope-Burbank
United States
Destination: KSJC Mineta San Jose Intl
United States
More flights between these airports :: More routes between these airports
Route: VNY3 AVE ROBIE4
File this flight plan on PilotEdge
Remarks:
Altitude:
(Current/Filed)
30,000ft
Speed:
(Current/Filed)
250kts
Departed: 20-Mar-17 08:25 PM
Arrived: 20-Mar-17 09:40 PM
Distance/Time
Traveled:
258nm/1:15
Distance/Time
To Go:
Arrived

Flight Plot

Page will automatically refresh every two minutes.

Flight plan parsing failed; only flown route is shown


Map Options




Map Legend


Flown Route
Filed Route
Departure Airport
Arrival Airport
Navaid (VOR, NDB)
Fix

Horizontal Profiles

Position Reports

Time Latitude Longitude Heading Altitude Ground
Speed
20-Mar-17 20:04 34.196479 -118.354955 135 781ft 0kts
20-Mar-17 20:05 34.196479 -118.354955 135 781ft 0kts
20-Mar-17 20:06 34.196479 -118.354955 135 781ft 0kts
20-Mar-17 20:07 34.196479 -118.354955 135 781ft 0kts
20-Mar-17 20:08 34.196479 -118.354955 135 781ft 0kts
20-Mar-17 20:09 34.196479 -118.354955 135 781ft 0kts
20-Mar-17 20:10 34.196983 -118.352388 180 781ft 0kts
20-Mar-17 20:11 34.196983 -118.352388 180 781ft 0kts
20-Mar-17 20:12 34.196983 -118.352388 180 781ft 0kts
20-Mar-17 20:13 34.196983 -118.352388 180 781ft 0kts
20-Mar-17 20:14 34.196983 -118.352388 180 781ft 0kts
20-Mar-17 20:15 34.196983 -118.352388 180 781ft 0kts
20-Mar-17 20:16 34.196983 -118.352388 180 781ft 0kts
20-Mar-17 20:17 34.196983 -118.352388 180 781ft 0kts
20-Mar-17 20:18 34.196983 -118.352388 180 781ft 0kts
20-Mar-17 20:19 34.196983 -118.352388 180 781ft 0kts
20-Mar-17 20:20 34.197020 -118.352167 0 781ft 4kts
20-Mar-17 20:21 34.197807 -118.354650 331 781ft 24kts
20-Mar-17 20:22 34.211148 -118.358785 337 781ft 33kts
20-Mar-17 20:23 34.211701 -118.359281 311 781ft 0kts
20-Mar-17 20:24 34.211701 -118.359281 311 781ft 0kts
20-Mar-17 20:25 34.211705 -118.360324 233 781ft 0kts
20-Mar-17 20:26 34.186917 -118.357137 198 1131ft 199kts
20-Mar-17 20:27 34.142232 -118.407586 224 2685ft 188kts
20-Mar-17 20:28 34.114761 -118.456899 289 3681ft 189kts
20-Mar-17 20:29 34.164468 -118.477555 352 4841ft 213kts
20-Mar-17 20:30 34.223862 -118.487511 352 6342ft 219kts
20-Mar-17 20:31 34.284648 -118.497688 352 7844ft 224kts
20-Mar-17 20:32 34.346812 -118.508085 352 9346ft 229kts
20-Mar-17 20:33 34.411334 -118.518865 352 10841ft 260kts
20-Mar-17 20:34 34.485961 -118.531319 352 12351ft 275kts
20-Mar-17 20:35 34.562284 -118.544035 352 12997ft 278kts
20-Mar-17 20:36 34.637366 -118.561421 323 13980ft 281kts
20-Mar-17 20:37 34.683010 -118.640345 303 15487ft 293kts
20-Mar-17 20:38 34.728527 -118.723482 303 16987ft 298kts
20-Mar-17 20:39 34.774457 -118.807310 303 18487ft 298kts
20-Mar-17 20:40 34.829181 -118.880925 324 19981ft 297kts
20-Mar-17 20:41 34.897048 -118.937625 326 21483ft 295kts
20-Mar-17 20:42 34.964399 -118.992980 326 22977ft 292kts
20-Mar-17 20:43 35.031097 -119.047847 326 24476ft 288kts
20-Mar-17 20:44 35.096691 -119.101909 325 25975ft 282kts
20-Mar-17 20:45 35.160843 -119.154474 325 27471ft 275kts
20-Mar-17 20:46 35.223297 -119.206103 325 28969ft 267kts
20-Mar-17 20:47 35.284254 -119.256623 325 29991ft 277kts
20-Mar-17 20:48 35.352427 -119.313232 325 30001ft 313kts
20-Mar-17 20:49 35.426697 -119.375050 325 29998ft 332kts
20-Mar-17 20:50 35.504250 -119.439750 325 30000ft 342kts
20-Mar-17 20:51 35.562314 -119.527329 287 30000ft 345kts
20-Mar-17 20:52 35.585606 -119.641572 282 30000ft 345kts
20-Mar-17 20:53 35.606670 -119.756285 282 30000ft 345kts
20-Mar-17 20:54 35.627589 -119.871348 282 30000ft 345kts
20-Mar-17 20:55 35.650156 -119.986221 290 29999ft 345kts
20-Mar-17 20:56 35.685199 -120.095528 292 29997ft 344kts
20-Mar-17 20:57 35.721529 -120.204822 291 30000ft 345kts
20-Mar-17 20:58 35.758483 -120.313422 301 30002ft 345kts
20-Mar-17 20:59 35.798394 -120.421054 295 30000ft 345kts
20-Mar-17 21:00 35.839866 -120.527708 295 30000ft 345kts
20-Mar-17 21:01 35.881331 -120.634013 295 30000ft 345kts
20-Mar-17 21:02 35.922878 -120.740854 295 30000ft 345kts
20-Mar-17 21:03 35.964305 -120.847741 295 30000ft 345kts
20-Mar-17 21:04 36.007287 -120.953064 310 30001ft 345kts
20-Mar-17 21:05 36.079623 -121.029145 322 27861ft 334kts
20-Mar-17 21:06 36.151400 -121.097698 322 25661ft 322kts
20-Mar-17 21:07 36.220936 -121.163517 322 23460ft 311kts
20-Mar-17 21:08 36.287676 -121.227270 322 21265ft 300kts
20-Mar-17 21:09 36.352324 -121.289289 322 19993ft 292kts
20-Mar-17 21:10 36.416547 -121.351242 322 19591ft 292kts
20-Mar-17 21:11 36.479163 -121.411682 322 19187ft 279kts
20-Mar-17 21:12 36.544648 -121.461921 331 17773ft 274kts
20-Mar-17 21:13 36.610132 -121.506398 331 16077ft 266kts
20-Mar-17 21:14 36.674079 -121.549949 331 14376ft 259kts
20-Mar-17 21:15 36.736423 -121.592490 331 12672ft 253kts
20-Mar-17 21:16 36.797201 -121.634088 331 11701ft 249kts
20-Mar-17 21:17 36.857362 -121.675321 331 11003ft 246kts
20-Mar-17 21:18 36.917165 -121.716354 331 10300ft 244kts
20-Mar-17 21:19 36.975121 -121.756187 331 9598ft 230kts
20-Mar-17 21:20 37.030655 -121.794421 331 9014ft 227kts
20-Mar-17 21:21 37.085984 -121.832492 331 8415ft 226kts
20-Mar-17 21:22 37.140683 -121.870073 331 7450ft 224kts
20-Mar-17 21:23 37.194256 -121.906767 331 5889ft 215kts
20-Mar-17 21:24 37.246931 -121.942899 331 5249ft 216kts
20-Mar-17 21:25 37.297655 -121.980792 315 4185ft 211kts
20-Mar-17 21:26 37.338048 -122.034244 313 3473ft 210kts
20-Mar-17 21:27 37.377826 -122.087201 313 2668ft 207kts
20-Mar-17 21:28 37.414962 -122.136639 313 2215ft 180kts
20-Mar-17 21:29 37.449377 -122.182455 313 2200ft 180kts
20-Mar-17 21:30 37.483872 -122.228373 313 2200ft 180kts
20-Mar-17 21:31 37.517829 -122.274548 313 2198ft 181kts
20-Mar-17 21:32 37.554789 -122.263866 94 2202ft 180kts
20-Mar-17 21:33 37.536562 -122.205128 116 2166ft 181kts
20-Mar-17 21:34 37.512840 -122.149661 119 1999ft 174kts
20-Mar-17 21:35 37.491698 -122.102736 119 1997ft 137kts
20-Mar-17 21:36 37.473143 -122.062038 119 2000ft 134kts
20-Mar-17 21:37 37.449983 -122.026373 138 1922ft 123kts
20-Mar-17 21:38 37.425571 -121.999303 138 1493ft 108kts
20-Mar-17 21:39 37.403270 -121.974712 138 892ft 106kts
20-Mar-17 21:40 37.379709 -121.948795 137 348ft 100kts
20-Mar-17 21:41 37.367394 -121.934368 79 66ft 0kts

Navigation Log

Ident Type
Flight plan parsing failed, navigation log unavailable